Meteo Giornale » Osservazioni meteo Stati Uniti (USA) » Mammoth-June Lakes
ore: 14:35 - Osservazioni Meteo Mammoth-June Lakes
Lat. 37° 37' N Lon. 118° 50' W Alt. 2173 metri s.l.m.
24 °C
Sereno
Temp. 24 Ore
3 °C
25 °C
Nord
11.1 Km/h
Dew point 0 °C
Umidità 20 %
Visibilità 10 Km
Il sole sorge alle ore 06:25
Il sole tramonta alle ore 19:26
| Data e Ora | Cielo e Fenomeni | T °C | DP °C | Um. % | Pres. hPa | Vis. km | Vento km/h | |
|---|---|---|---|---|---|---|---|---|
| Oggi h: 14:35 | Sereno | 24 | 0 | 20 | 1020 | 10 | N 11.1 | |
| Oggi h: 14:15 | Sereno | 23 | 0 | 21 | 1020 | 10 | E 11.1 | |
| Oggi h: 13:55 | Sereno | 23 | 1 | 23 | 1020 | 10 | E/SE 20.3 | |
| Oggi h: 13:35 | Sereno | 23 | 1 | 23 | 1020 | 13 | E/NE 16.7 | |
| Oggi h: 13:15 | Sereno | 23 | 0 | 21 | 1020 | 10 | E/SE 24 | |
| Oggi h: 12:55 | Sereno | 23 | 1 | 23 | 1020 | 10 | E 20.3 | |
| Oggi h: 12:35 | Sereno | 23 | 1 | 23 | 1021 | 10 | SE 24 | |
| Oggi h: 12:15 | Sereno | 22 | 0 | 23 | 1021 | 10 | E/SE 18.5 | |
| Oggi h: 11:55 | Sereno | 22 | 0 | 23 | 1021 | 10 | E/SE 20.3 | |
| Oggi h: 11:35 | Sereno | 22 | 0 | 23 | 1021 | 10 | E 13 | |
| Oggi h: 11:15 | Sereno | 21 | -1 | 22 | 1021 | 10 | E 20.3 | |
| Oggi h: 10:55 | Sereno | 20 | -2 | 22 | 1021 | 10 | E/SE 11.1 | |
| Oggi h: 10:35 | Sereno | 20 | -2 | 22 | 1021 | 10 | N 7.4 | |
| Oggi h: 10:15 | Sereno | 19 | -1 | 25 | 1021 | 10 | N 9.3 | |
| Oggi h: 09:55 | Sereno | 18 | 1 | 31 | 1021 | 10 | SE 13 | |
| Oggi h: 09:35 | Sereno | 17 | 1 | 33 | 1021 | 10 | E/SE 9.3 | |
| Oggi h: 09:15 | Sereno | 16 | 1 | 36 | 1021 | 10 | SE 9.3 | |
| Oggi h: 08:55 | Sereno | 15 | 1 | 38 | 1022 | 14 | SE 9.3 | |
| Oggi h: 08:35 | Sereno | 13 | 2 | 47 | 1022 | 10 | N 5.5 | |
| Oggi h: 08:15 | Sereno | 11 | 1 | 50 | 1022 | 10 | N 0 | |
| Oggi h: 07:55 | Sereno | 9 | 0 | 53 | 1022 | 10 | N 0 | |
| Oggi h: 07:35 | Sereno | 8 | 0 | 56 | 1022 | 10 | N 5.5 | |
| Oggi h: 07:15 | Sereno | 6 | 0 | 65 | 1022 | 10 | N 0 | |
| Oggi h: 06:55 | Sereno | 6 | -1 | 60 | 1021 | 10 | S/SE 7.4 | |
| Oggi h: 06:35 | Sereno | 5 | -1 | 65 | 1021 | 10 | N 5.5 | |
| Oggi h: 06:15 | Sereno | 6 | -1 | 60 | 1021 | 10 | N 7.4 | |
| Oggi h: 05:55 | Sereno | 4 | -1 | 69 | 1021 | 10 | N 5.5 | |
| Oggi h: 05:35 | Sereno | 3 | -1 | 74 | 1021 | 10 | N 0 | |
| Oggi h: 05:15 | Sereno | 7 | 0 | 60 | 1021 | 10 | N 0 | |
| Oggi h: 04:55 | Sereno | 7 | 0 | 60 | 1021 | 10 | N 0 | |
| Oggi h: 04:35 | Sereno | 6 | -1 | 60 | 1021 | 10 | N 7.4 | |
| Oggi h: 04:15 | Sereno | 8 | 0 | 56 | 1021 | 10 | O/NO 11.1 | |
| Oggi h: 03:55 | Poco Nuvoloso | 8 | 0 | 56 | 1021 | 10 | N 0 | |
| Oggi h: 03:35 | Poco Nuvoloso | 8 | 0 | 56 | 1022 | 10 | N 0 | |
| Oggi h: 03:15 | Nuvoloso | 9 | 0 | 53 | 1022 | 10 | N 5.5 | |
| Oggi h: 02:55 | Coperto | 9 | 0 | 53 | 1021 | 10 | O 16.7 | |
| Oggi h: 02:35 | Coperto | 9 | 0 | 53 | 1022 | 10 | NO 7.4 | |
| Oggi h: 02:15 | Coperto | 8 | 0 | 56 | 1022 | 10 | N/NE 7.4 | |
| Oggi h: 01:55 | Coperto | 8 | -1 | 52 | 1022 | 10 | N 5.5 | |
| Oggi h: 01:35 | Coperto | 9 | -1 | 49 | 1022 | 10 | N 0 | |
| Oggi h: 01:15 | Molto Nuvoloso | 9 | 0 | 53 | 1022 | 10 | N 0 | |
| Oggi h: 00:55 | Nuvoloso | 7 | -1 | 56 | 1022 | 10 | N/NO 7.4 | |
| Oggi h: 00:35 | Sereno | 8 | 0 | 56 | 1022 | 10 | N 5.5 | |
| Oggi h: 00:15 | Sereno | 10 | 0 | 49 | 1022 | 10 | N 0 | |
| Ieri h: 23:55 | Poco Nuvoloso | 10 | -1 | 46 | 1022 | 10 | N 0 | |
| Ieri h: 23:35 | Nuvoloso | 11 | 0 | 46 | 1022 | 10 | N 0 | |
| Ieri h: 23:15 | Poco Nuvoloso | 11 | 0 | 46 | 1022 | 10 | N 0 | |
| Ieri h: 22:55 | Sereno | 11 | 0 | 46 | 1022 | 10 | N 7.4 | |
| Ieri h: 22:35 | Sereno | 11 | 0 | 46 | 1022 | 10 | N 9.3 | |
| Ieri h: 22:15 | Sereno | 14 | 1 | 41 | 1022 | 10 | O/NO 9.3 | |
| Ieri h: 21:55 | Sereno | 15 | 0 | 35 | 1022 | 10 | N 5.5 | |
| Ieri h: 21:35 | Sereno | 16 | 1 | 36 | 1022 | 10 | SE 9.3 | |
| Ieri h: 21:15 | Sereno | 16 | 1 | 36 | 1022 | 10 | SE 13 | |
| Ieri h: 20:55 | Sereno | 17 | -1 | 29 | 1021 | 10 | N 0 | |
| Ieri h: 20:35 | Sereno | 17 | -1 | 29 | 1021 | 10 | O/NO 9.3 | |
| Ieri h: 20:15 | Sereno | 18 | -1 | 27 | 1021 | 10 | NO 11.1 | |
| Ieri h: 19:55 | Sereno | 19 | -1 | 25 | 1021 | 10 | N 11.1 | |
| Ieri h: 19:35 | Sereno | 19 | 0 | 27 | 1021 | 10 | N 11.1 | |
| Ieri h: 19:15 | Sereno | 20 | 0 | 26 | 1020 | 10 | O/NO 14.8 | |
| Ieri h: 18:55 | Sereno | 22 | 0 | 23 | 1021 | 10 | NO 11.1 | |
| Ieri h: 18:35 | Sereno | 22 | 0 | 23 | 1020 | 10 | SO 11.1 | |
| Ieri h: 18:15 | Sereno | 23 | -1 | 20 | 1020 | 10 | O/NO 22.2 | |
| Ieri h: 17:55 | Sereno | 24 | -1 | 19 | 1020 | 10 | O/NO 27.8 | |
| Ieri h: 17:35 | Sereno | 24 | -1 | 19 | 1020 | 10 | O 25.9 | |
| Ieri h: 17:15 | Poco Nuvoloso | 24 | -1 | 19 | 1020 | 10 | O/NO 25.9 | |
| Ieri h: 16:55 | Sereno | 24 | -1 | 19 | 1021 | 10 | O/NO 27.8 | |
| Ieri h: 16:35 | Sereno | 25 | -2 | 16 | 1021 | 10 | O/NO 18.5 | |
| Ieri h: 16:15 | Sereno | 25 | -2 | 16 | 1021 | 10 | O 24 | |
| Ieri h: 15:55 | Sereno | 25 | -3 | 15 | 1021 | 10 | O 20.3 | |
| Ieri h: 15:35 | Sereno | 25 | -5 | 13 | 1021 | 10 | O/NO 25.9 | |
| Ieri h: 15:15 | Sereno | 25 | -5 | 13 | 1021 | 10 | NO 20.3 | |
| Ieri h: 14:55 | Sereno | 25 | -6 | 12 | 1021 | 10 | O 22.2 | |
| Ieri h: 14:35 | Sereno | 24 | -6 | 13 | 1022 | 10 | N 7.4 | |



